Wheeler, Wisconsin
Current Conditions -  °F | °C
As of 1:35 AM on Monday 22 Dec 2014 (Local Time) from KLUM Reporting Station
Light Rain Light Rain  
Wind Chill: 29°   Ceiling: 1000
Heat Index: 36°   Visibility: 5mi
Dew Point: 34°   Wind: 9mph
Humidity: 95%   Direction: 130°SE
Pressure: 29.78"   Gusts: NA
Location:  45.04°N, 91.91°W
Report Text: KLUM 220735Z AUTO 13008KT 5SM -RA OVC010 02/01 A2978 RMK AO2 P0004 T00200013
Loading
Personal Weather Stations






























Interactive Weather Map New forecast layout! Learn more

10-Day Weather Forecast

Advertisements
Track Severe Weather on mobile